Weather at Creager Airport

Public forecast

Using degrees Fahrenheit for public forecast. Weather courtesy of forecast.io.

Closest aviation weather report (METAR) to Creager Airport

Closest report is Clermont County Airport, 8.2 nm (15.1 km) WNW. Retrieved 2021/06/13 17:15 UTC (0 seconds ago):

KI69 131715Z AUTO 32005KT 10SM BKN041 BKN047 31/23 A2992 RMK AO2 T03100228

Closest aviation forecast (TAF) to Creager Airport

Closest forecast is Cincinnati Municipal Airport Lunken Field, 17.9 nm (33.1 km) WNW. Retrieved 2021/06/13 12:36 UTC (4 hours ago):

TAF KLUK 131133Z 1312/1412 24005KT P6SM SCT070 FM131500 32005KT P6SM VCTS SCT035CB FM131900 33007KT P6SM SCT040 FM140000 35008KT P6SM SCT250 FM141000 00000KT 5SM BR SKC